Portada
METAR-TAF:

METAR-TAF

Aeroports :

San José del Cabo, Mèxic

latitud: 23-09N, longitud: 109-42W, altitud: 109 m

Observació

L'informe es va fer fa 6 hores i 16 minuts, a les 04:45 UTC
Vent 5 kt del Oest/Nord-Oest
Temperatura 16°C
Humitat 72%
Pressió 1017 hPa
Visibilitat: 12.9 km
Escasses núvols a una alçada de 4000 ft

METAR: MMSD 250445Z 29005KT 8SM FEW040 16/11 A3002 RMK 8/500

Hora: 04:01 (11:01 UTC)

Pronòstic

L'informe es va fer fa 6 hores i 41 minuts, a les 04:20 UTC
Pronòstic vàlid del 25 a les 06 UTC al 26 a les 06 UTC
Vent 5 kt del Oest
Visibilitat: 10 km
Cel clar
A partir de les 25 a les 1600 UTC
Vent 10 kt del Sud/Sud-Est
Visibilitat: 10 km
Núvols disperses a una alçada de 3000 ft
A partir de les 26 a les 0300 UTC
Vent 5 kt del Oest/Nord-Oest
Visibilitat: 10 km
Núvols disperses a una alçada de 25000 ft

TAF: MMSD 250420Z 2506/2606 28005KT P6SM SKC FM251600 16010KT P6SM SCT030 FM260300 30005KT P6SM SCT250

Observacions i pronòstics meteorològics de més de 4000 aeroports (METAR i TAF).

Les estacions disponibles són els punts grocs i vermells al mapa.

Posi el ratolí al punt desitjat per veure el nom de l'estació.

Feu clic per veure les observacions i els pronòstics meteorològics.

Per canviar el mapa: feu clic els botons verds amb una creu de color negre per apropar; al botó verd amb un guió per allunyar la imatge; o en les fletxes verdes per a mapes adjacents.


METAR-TAF: